Terminal Aerodrome Forecast
Issued by NWS

Home | Current Version | Previous Version | Text Only | Print | Product List | Glossary On
Versions: 1 2 3 4 5 6 7 8 9 10 11 12 13 14 15 16 17 18
000
FTUS43 KLSX 252321
TAFSUS
TAF
KSUS 252321Z 2600/2624 20005KT P6SM SCT150
     FM261000 14004KT P6SM BKN060
     FM261500 18010KT P6SM BKN050
     FM262300 23005KT P6SM BKN040=

USA.gov is the U.S. government's official web portal to all federal, state and local government web resources and services.